Roaring Branch, Pennsylvania
Current Conditions -  °F | °C
As of 5:25 PM on Thursday 18 Dec 2014 (Local Time) from KIPT Reporting Station
Overcast Overcast  
Wind Chill: 30°   Ceiling: 2900
Heat Index: 36°   Visibility: 10mi
Dew Point: 25°   Wind: 8mph
Humidity: 64%   Direction: 270°W
Pressure: 30.05"   Gusts: NA
Location:  41.57°N, 76.95°W
Report Text: KIPT 182225Z 27007KT 10SM OVC029 02/M04 A3005 RMK AO2 T00221039
Loading
Personal Weather Stations






























Interactive Weather Map New forecast layout! Learn more

10-Day Weather Forecast

Advertisements
Track Severe Weather on mobile